createdAt,value
2017-09-14T00:00:06.544Z,18.13
2017-09-14T00:02:32.781Z,18.03
2017-09-14T00:04:59.070Z,17.97
2017-09-14T00:07:26.085Z,17.93
2017-09-14T00:09:52.308Z,17.91
2017-09-14T00:12:18.736Z,17.89
2017-09-14T00:14:44.962Z,17.92
2017-09-14T00:17:11.238Z,18.00
2017-09-14T00:19:37.441Z,18.01
2017-09-14T00:22:03.706Z,17.92
2017-09-14T00:24:30.013Z,17.78
2017-09-14T00:26:56.210Z,17.75
2017-09-14T00:29:23.253Z,17.64
2017-09-14T00:31:49.599Z,17.58
2017-09-14T00:34:15.904Z,17.58
2017-09-14T00:36:42.221Z,17.47
2017-09-14T00:39:08.513Z,17.46
2017-09-14T00:41:35.510Z,17.38
2017-09-14T00:44:01.730Z,17.36
2017-09-14T00:46:27.965Z,17.34
2017-09-14T00:48:54.194Z,17.36
2017-09-14T00:51:20.461Z,17.31
2017-09-14T00:53:46.845Z,17.23
2017-09-14T00:56:13.122Z,17.13
2017-09-14T00:58:39.404Z,17.04
2017-09-14T01:01:06.369Z,16.94
2017-09-14T01:03:33.357Z,16.83
2017-09-14T01:05:59.605Z,16.77
2017-09-14T01:08:25.898Z,16.65
2017-09-14T01:10:52.372Z,16.55
2017-09-14T01:13:18.644Z,16.41
2017-09-14T01:15:45.665Z,16.33
2017-09-14T01:18:11.913Z,16.25
2017-09-14T01:20:38.112Z,16.15
2017-09-14T01:23:04.359Z,16.22
2017-09-14T01:25:30.590Z,16.08
2017-09-14T01:27:56.809Z,16.00
2017-09-14T01:30:23.137Z,15.95
2017-09-14T01:32:49.413Z,15.97
2017-09-14T01:35:15.904Z,15.97
2017-09-14T01:37:42.161Z,16.07
2017-09-14T01:40:08.402Z,16.49
2017-09-14T01:42:34.689Z,16.63
2017-09-14T01:45:01.711Z,16.85
2017-09-14T01:47:28.033Z,17.04
2017-09-14T01:49:54.265Z,17.06
2017-09-14T01:52:20.492Z,17.15
2017-09-14T01:54:46.769Z,17.23
2017-09-14T01:57:13.029Z,17.32
2017-09-14T01:59:40.034Z,17.35
2017-09-14T02:02:07.265Z,17.29
2017-09-14T02:04:33.700Z,17.28
2017-09-14T02:06:59.966Z,17.22
2017-09-14T02:09:26.169Z,17.09
2017-09-14T02:11:52.414Z,17.04
2017-09-14T02:14:18.654Z,17.00
2017-09-14T02:16:44.920Z,16.88
2017-09-14T02:19:11.270Z,16.75
2017-09-14T02:21:38.254Z,16.62
2017-09-14T02:24:04.550Z,16.46
2017-09-14T02:26:30.885Z,16.40
2017-09-14T02:28:57.158Z,16.39
2017-09-14T02:31:23.385Z,16.36
2017-09-14T02:33:50.517Z,16.29
2017-09-14T02:36:17.575Z,16.24
2017-09-14T02:38:44.690Z,16.20
2017-09-14T02:41:10.977Z,16.14
2017-09-14T02:43:37.965Z,16.15
2017-09-14T02:46:04.342Z,16.12
2017-09-14T02:48:30.674Z,16.10
2017-09-14T02:50:56.966Z,16.14
2017-09-14T02:53:23.434Z,16.12
2017-09-14T02:55:49.742Z,16.09
2017-09-14T02:58:15.981Z,16.01
2017-09-14T03:00:42.431Z,15.95
2017-09-14T03:03:08.677Z,16.06
2017-09-14T03:05:35.000Z,16.07
2017-09-14T03:08:01.253Z,16.18
2017-09-14T03:10:27.467Z,16.13
2017-09-14T03:12:53.687Z,16.05
2017-09-14T03:15:19.925Z,16.08
2017-09-14T03:17:46.241Z,16.01
2017-09-14T03:20:12.549Z,15.98
2017-09-14T03:22:38.821Z,15.99
2017-09-14T03:25:05.087Z,15.99
2017-09-14T03:27:31.334Z,16.00
2017-09-14T03:29:57.749Z,15.94
2017-09-14T03:32:24.001Z,15.78
2017-09-14T03:34:50.365Z,15.58
2017-09-14T03:37:16.673Z,15.37
2017-09-14T03:39:42.846Z,15.12
2017-09-14T03:42:09.079Z,15.07
2017-09-14T03:44:35.619Z,14.99
2017-09-14T03:47:02.557Z,14.96
2017-09-14T03:49:28.847Z,15.00
2017-09-14T03:51:56.136Z,15.11
2017-09-14T03:54:23.187Z,15.16
2017-09-14T03:56:49.407Z,15.14
2017-09-14T03:59:15.648Z,15.13
2017-09-14T04:01:41.882Z,15.03
2017-09-14T04:04:08.154Z,15.10
2017-09-14T04:06:35.143Z,15.24
2017-09-14T04:09:01.398Z,15.25
2017-09-14T04:11:27.613Z,15.39
2017-09-14T04:13:53.849Z,15.58
2017-09-14T04:16:20.130Z,15.76
2017-09-14T04:18:46.435Z,15.80
2017-09-14T04:21:12.882Z,15.81
2017-09-14T04:23:39.113Z,15.97
2017-09-14T04:26:05.355Z,16.00
2017-09-14T04:28:31.570Z,15.99
2017-09-14T04:30:57.897Z,15.96
2017-09-14T04:33:24.166Z,16.03
2017-09-14T04:35:50.539Z,16.08
2017-09-14T04:38:17.583Z,16.12
2017-09-14T04:40:43.861Z,16.23
2017-09-14T04:43:10.196Z,16.26
2017-09-14T04:45:36.645Z,16.40
2017-09-14T04:48:02.852Z,16.42
2017-09-14T04:50:29.869Z,16.42
2017-09-14T04:52:56.218Z,16.40
2017-09-14T04:55:23.225Z,16.42
2017-09-14T04:57:49.451Z,16.53
2017-09-14T05:00:15.673Z,16.67
2017-09-14T05:02:42.049Z,16.72
2017-09-14T05:05:08.333Z,16.81
2017-09-14T05:07:34.590Z,16.92
2017-09-14T05:10:00.891Z,16.88
2017-09-14T05:12:27.871Z,16.86
2017-09-14T05:14:54.194Z,16.73
2017-09-14T05:17:20.490Z,16.68
2017-09-14T05:19:47.493Z,16.70
2017-09-14T05:22:13.729Z,16.75
2017-09-14T05:24:40.006Z,16.96
2017-09-14T05:27:06.307Z,17.03
2017-09-14T05:29:32.565Z,17.07
2017-09-14T05:31:58.750Z,17.19
2017-09-14T05:34:25.775Z,17.26
2017-09-14T05:36:52.068Z,17.36
2017-09-14T05:39:18.339Z,17.39
2017-09-14T05:41:45.562Z,17.36
2017-09-14T05:44:11.810Z,17.34
2017-09-14T05:46:38.115Z,17.41
2017-09-14T05:49:04.393Z,17.62
2017-09-14T05:51:30.697Z,17.74
2017-09-14T05:53:56.952Z,17.88
2017-09-14T05:56:23.300Z,17.86
2017-09-14T05:58:49.486Z,17.94
2017-09-14T06:01:15.773Z,17.98
2017-09-14T06:03:41.974Z,18.05
2017-09-14T06:06:08.347Z,18.12
2017-09-14T06:08:34.545Z,18.22
2017-09-14T06:11:00.757Z,18.28
2017-09-14T06:13:27.040Z,18.31
2017-09-14T06:15:53.229Z,18.38
2017-09-14T06:18:19.477Z,18.40
2017-09-14T06:20:45.750Z,18.56
2017-09-14T06:23:12.045Z,18.61
2017-09-14T06:25:38.360Z,18.66
2017-09-14T06:28:08.442Z,18.70
2017-09-14T06:30:34.790Z,18.77
2017-09-14T06:33:01.816Z,18.80
2017-09-14T06:35:28.029Z,18.81
2017-09-14T06:37:54.265Z,18.88
2017-09-14T06:40:20.564Z,18.93
2017-09-14T06:42:48.378Z,18.98
2017-09-14T06:45:14.655Z,19.10
2017-09-14T06:47:40.946Z,19.26
2017-09-14T06:50:07.174Z,19.37
2017-09-14T06:52:37.967Z,19.47
2017-09-14T06:55:09.083Z,19.55
2017-09-14T06:57:39.231Z,19.63
2017-09-14T07:00:08.043Z,19.78
2017-09-14T07:02:39.797Z,19.84
2017-09-14T07:05:11.316Z,19.86
2017-09-14T07:07:39.196Z,20.02
2017-09-14T07:10:10.406Z,20.26
2017-09-14T07:12:41.122Z,20.40
2017-09-14T07:15:12.963Z,20.54
2017-09-14T07:17:43.251Z,20.65
2017-09-14T07:20:12.990Z,20.75
2017-09-14T07:22:40.869Z,20.87
2017-09-14T07:25:10.595Z,20.84
2017-09-14T07:27:40.379Z,20.79
2017-09-14T07:30:09.742Z,20.74
2017-09-14T07:32:39.808Z,20.74
2017-09-14T07:35:11.528Z,20.94
2017-09-14T07:37:40.456Z,20.92
2017-09-14T07:40:12.477Z,20.95
2017-09-14T07:42:42.250Z,20.99
2017-09-14T07:45:08.590Z,20.99
2017-09-14T07:47:34.907Z,21.13
2017-09-14T07:50:01.106Z,21.37
2017-09-14T07:52:28.105Z,21.40
2017-09-14T07:54:54.325Z,21.08
2017-09-14T07:57:20.594Z,21.12
2017-09-14T07:59:46.907Z,20.70
2017-09-14T08:02:13.147Z,20.24
2017-09-14T08:04:39.412Z,19.90
2017-09-14T08:07:06.418Z,19.89
2017-09-14T08:09:32.657Z,19.71
2017-09-14T08:11:58.932Z,19.30
2017-09-14T08:14:25.205Z,18.89
2017-09-14T08:16:51.485Z,18.57
2017-09-14T08:19:18.539Z,18.47
2017-09-14T08:21:44.842Z,19.00
2017-09-14T08:24:11.098Z,18.89
2017-09-14T08:26:37.356Z,18.76
2017-09-14T08:29:03.747Z,18.24
2017-09-14T08:31:30.110Z,18.18
2017-09-14T08:33:56.352Z,17.95
2017-09-14T08:36:22.696Z,17.77
2017-09-14T08:38:49.007Z,17.52
2017-09-14T08:41:16.535Z,17.58
2017-09-14T08:43:42.889Z,17.70
2017-09-14T08:46:09.297Z,17.97
2017-09-14T08:48:36.279Z,17.79
2017-09-14T08:51:02.513Z,17.51
2017-09-14T08:53:28.759Z,17.19
2017-09-14T08:55:55.005Z,16.80
2017-09-14T08:58:21.237Z,16.38
2017-09-14T09:00:51.811Z,16.19
2017-09-14T09:03:18.010Z,15.59
2017-09-14T09:05:50.540Z,15.15
2017-09-14T09:08:17.454Z,14.97
2017-09-14T09:10:43.741Z,15.43
2017-09-14T09:13:10.030Z,16.22
2017-09-14T09:15:36.345Z,15.99
2017-09-14T09:18:02.553Z,15.15
2017-09-14T09:20:28.810Z,14.33
2017-09-14T09:22:55.007Z,13.95
2017-09-14T09:25:22.048Z,13.97
2017-09-14T09:27:48.350Z,14.28
2017-09-14T09:30:14.574Z,14.32
2017-09-14T09:32:40.751Z,14.39
2017-09-14T09:35:07.775Z,14.37
2017-09-14T09:37:34.094Z,14.19
2017-09-14T09:40:00.285Z,13.86
2017-09-14T09:42:27.302Z,13.50
2017-09-14T09:44:53.597Z,13.32
2017-09-14T09:47:19.840Z,13.28
2017-09-14T09:49:46.024Z,13.10
2017-09-14T09:52:13.095Z,13.16
2017-09-14T09:54:39.298Z,13.15
2017-09-14T09:57:05.670Z,12.97
2017-09-14T09:59:31.930Z,12.82
2017-09-14T10:01:58.177Z,12.78
2017-09-14T10:04:24.560Z,12.73
2017-09-14T10:06:51.549Z,12.76
2017-09-14T10:09:17.778Z,12.58
2017-09-14T10:11:44.050Z,12.43
2017-09-14T10:14:10.237Z,12.42
2017-09-14T10:16:36.696Z,12.25
2017-09-14T10:19:02.909Z,12.13
2017-09-14T10:21:29.337Z,12.08
2017-09-14T10:23:55.541Z,12.06
2017-09-14T10:26:21.855Z,11.99
2017-09-14T10:28:48.087Z,11.89
2017-09-14T10:31:14.314Z,11.81
2017-09-14T10:33:40.521Z,11.71
2017-09-14T10:36:06.907Z,11.68
2017-09-14T10:38:33.381Z,11.55
2017-09-14T10:41:00.397Z,11.41
2017-09-14T10:43:26.631Z,11.40
2017-09-14T10:45:53.037Z,11.27
2017-09-14T10:48:19.269Z,11.18
2017-09-14T10:50:45.480Z,11.17
2017-09-14T10:53:12.489Z,11.16
2017-09-14T10:55:38.688Z,11.05
2017-09-14T10:58:04.899Z,10.93
2017-09-14T11:00:32.025Z,10.88
2017-09-14T11:02:58.246Z,10.81
2017-09-14T11:05:24.486Z,10.83
2017-09-14T11:07:50.821Z,10.80
2017-09-14T11:10:17.222Z,10.81
2017-09-14T11:12:45.129Z,10.78
2017-09-14T11:15:11.413Z,10.82
2017-09-14T11:17:37.663Z,10.86
2017-09-14T11:20:03.969Z,10.84
2017-09-14T11:22:30.939Z,10.85
2017-09-14T11:24:57.213Z,10.88
2017-09-14T11:27:23.742Z,10.90
2017-09-14T11:29:51.010Z,10.88
2017-09-14T11:32:17.194Z,10.87
2017-09-14T11:34:46.266Z,10.84
2017-09-14T11:37:13.250Z,10.81
2017-09-14T11:39:39.522Z,10.73
2017-09-14T11:42:05.766Z,10.64
2017-09-14T11:44:32.944Z,10.59
2017-09-14T11:46:59.278Z,10.56
2017-09-14T11:49:25.494Z,10.56
2017-09-14T11:51:51.677Z,10.56
2017-09-14T11:54:18.867Z,10.57
2017-09-14T11:56:45.081Z,10.56
2017-09-14T11:59:11.310Z,10.56
2017-09-14T12:01:37.597Z,10.56
2017-09-14T12:04:03.910Z,10.55
2017-09-14T12:06:30.147Z,10.57
2017-09-14T12:08:56.409Z,10.56
2017-09-14T12:11:22.711Z,10.56
2017-09-14T12:13:48.950Z,10.38
2017-09-14T12:16:15.167Z,10.37
2017-09-14T12:18:41.500Z,10.38
2017-09-14T12:21:07.721Z,10.31
2017-09-14T12:23:34.726Z,10.24
2017-09-14T12:26:01.025Z,10.14
2017-09-14T12:28:30.829Z,10.06
2017-09-14T12:30:57.410Z,10.04
2017-09-14T12:33:24.430Z,9.97
2017-09-14T12:35:50.666Z,9.92
2017-09-14T12:38:16.940Z,9.90
2017-09-14T12:40:43.266Z,9.91
2017-09-14T12:43:10.594Z,9.87
2017-09-14T12:45:36.849Z,9.84
2017-09-14T12:48:03.085Z,9.85
2017-09-14T12:50:29.292Z,9.89
2017-09-14T12:52:55.557Z,9.87
2017-09-14T12:55:21.820Z,9.90
2017-09-14T12:57:48.105Z,9.96
2017-09-14T13:00:14.345Z,9.98
2017-09-14T13:02:40.617Z,9.99
2017-09-14T13:05:06.909Z,9.97
2017-09-14T13:07:33.187Z,10.08
2017-09-14T13:10:00.483Z,10.10
2017-09-14T13:12:26.686Z,10.17
2017-09-14T13:14:52.878Z,10.23
2017-09-14T13:17:19.189Z,10.20
2017-09-14T13:19:46.241Z,10.17
2017-09-14T13:22:13.250Z,10.14
2017-09-14T13:24:39.464Z,10.00
2017-09-14T13:27:05.681Z,9.89
2017-09-14T13:29:32.010Z,9.87
2017-09-14T13:31:58.277Z,9.84
2017-09-14T13:34:24.630Z,9.82
2017-09-14T13:36:51.052Z,9.82
2017-09-14T13:39:17.388Z,9.73
2017-09-14T13:41:43.630Z,9.65
2017-09-14T13:44:09.926Z,9.57
2017-09-14T13:46:36.896Z,9.51
2017-09-14T13:49:03.218Z,9.48
2017-09-14T13:51:29.498Z,9.39
2017-09-14T13:53:55.743Z,9.29
2017-09-14T13:56:22.093Z,9.26
2017-09-14T13:58:48.368Z,9.21
2017-09-14T14:01:14.758Z,9.19
2017-09-14T14:03:41.757Z,9.18
2017-09-14T14:06:08.022Z,9.22
2017-09-14T14:08:34.354Z,9.27
2017-09-14T14:11:00.569Z,9.24
2017-09-14T14:13:26.835Z,9.23
2017-09-14T14:15:53.062Z,9.20
2017-09-14T14:18:19.313Z,9.23
2017-09-14T14:20:45.613Z,9.26
2017-09-14T14:23:11.850Z,9.27
2017-09-14T14:25:38.145Z,9.22
2017-09-14T14:28:05.162Z,9.25
2017-09-14T14:30:31.549Z,9.31
2017-09-14T14:32:57.940Z,9.31
2017-09-14T14:35:24.665Z,9.33
2017-09-14T14:37:50.882Z,9.40
2017-09-14T14:40:17.177Z,9.38
2017-09-14T14:42:45.050Z,9.44
2017-09-14T14:45:11.338Z,9.48
2017-09-14T14:47:37.587Z,9.51
2017-09-14T14:50:03.833Z,9.50
2017-09-14T14:52:30.038Z,9.54
2017-09-14T14:54:56.261Z,9.50
2017-09-14T14:57:22.525Z,9.55
2017-09-14T14:59:48.783Z,9.51
2017-09-14T15:02:14.974Z,9.57
2017-09-14T15:04:41.229Z,9.66
2017-09-14T15:07:07.456Z,9.69
2017-09-14T15:09:33.713Z,9.67
2017-09-14T15:12:00.038Z,9.72
2017-09-14T15:14:26.223Z,9.77
2017-09-14T15:16:53.225Z,9.85
2017-09-14T15:19:19.418Z,9.82
2017-09-14T15:21:45.658Z,9.88
2017-09-14T15:24:11.878Z,9.87
2017-09-14T15:26:38.103Z,9.89
2017-09-14T15:29:05.084Z,9.95
2017-09-14T15:31:31.457Z,9.92
2017-09-14T15:33:57.757Z,9.99
2017-09-14T15:36:23.979Z,9.98
2017-09-14T15:38:56.421Z,10.01
2017-09-14T15:41:28.854Z,10.13
2017-09-14T15:44:01.258Z,10.23
2017-09-14T15:46:27.583Z,10.32
2017-09-14T15:48:59.834Z,10.37
2017-09-14T15:51:32.382Z,10.40
2017-09-14T15:53:59.382Z,10.43
2017-09-14T15:56:25.593Z,10.44
2017-09-14T15:58:51.823Z,10.41
2017-09-14T16:01:18.109Z,10.42
2017-09-14T16:03:44.314Z,10.39
2017-09-14T16:06:10.557Z,10.39
2017-09-14T16:08:37.333Z,10.39
2017-09-14T16:11:05.019Z,10.42
2017-09-14T16:13:32.072Z,10.50
2017-09-14T16:15:58.331Z,10.55
2017-09-14T16:18:24.578Z,10.59
2017-09-14T16:20:50.830Z,10.57
2017-09-14T16:23:17.046Z,10.59
2017-09-14T16:25:43.335Z,10.70
2017-09-14T16:28:10.303Z,10.77
2017-09-14T16:30:36.550Z,10.84
2017-09-14T16:33:03.905Z,10.94
2017-09-14T16:35:30.974Z,11.01
2017-09-14T16:37:57.242Z,10.99
2017-09-14T16:40:23.604Z,10.98
2017-09-14T16:42:50.595Z,11.01
2017-09-14T16:45:16.778Z,11.05
2017-09-14T16:47:43.285Z,11.12
2017-09-14T16:50:09.522Z,11.11
2017-09-14T16:52:35.903Z,11.08
2017-09-14T16:55:03.241Z,11.08
2017-09-14T16:57:29.589Z,11.07
2017-09-14T16:59:55.901Z,11.07
2017-09-14T17:02:22.152Z,11.11
2017-09-14T17:04:48.491Z,11.13
2017-09-14T17:07:14.778Z,11.12
2017-09-14T17:09:41.066Z,11.17
2017-09-14T17:12:07.406Z,11.17
2017-09-14T17:14:34.526Z,11.14
2017-09-14T17:17:02.126Z,11.15
2017-09-14T17:19:28.458Z,11.09
2017-09-14T17:21:54.769Z,11.08
2017-09-14T17:24:20.974Z,11.04
2017-09-14T17:26:47.157Z,10.93
2017-09-14T17:29:13.466Z,10.95
2017-09-14T17:31:39.994Z,10.87
2017-09-14T17:34:06.190Z,10.85
2017-09-14T17:36:33.208Z,10.80
2017-09-14T17:38:59.614Z,10.76
2017-09-14T17:41:30.271Z,10.73
2017-09-14T17:44:02.610Z,10.70
2017-09-14T17:46:34.114Z,10.67
2017-09-14T17:49:00.610Z,10.68
2017-09-14T17:51:26.862Z,10.57
2017-09-14T17:53:53.090Z,10.76
2017-09-14T17:56:19.317Z,10.80
2017-09-14T17:58:45.602Z,10.86
2017-09-14T18:01:11.897Z,10.91
2017-09-14T18:03:38.210Z,10.83
2017-09-14T18:06:05.382Z,10.75
2017-09-14T18:08:31.613Z,10.68
2017-09-14T18:10:58.895Z,10.67
2017-09-14T18:13:25.135Z,10.60
2017-09-14T18:15:51.393Z,10.61
2017-09-14T18:18:17.745Z,10.61
2017-09-14T18:20:44.730Z,10.61
2017-09-14T18:23:11.040Z,10.55
2017-09-14T18:25:38.042Z,10.56
2017-09-14T18:28:04.466Z,10.61
2017-09-14T18:30:30.697Z,10.59
2017-09-14T18:32:56.966Z,10.60
2017-09-14T18:35:23.339Z,10.61
2017-09-14T18:37:50.358Z,10.60
2017-09-14T18:40:16.715Z,10.58
2017-09-14T18:42:43.082Z,10.56
2017-09-14T18:45:09.919Z,10.48
2017-09-14T18:47:36.715Z,10.52
2017-09-14T18:50:03.032Z,10.45
2017-09-14T18:52:29.299Z,10.53
2017-09-14T18:54:55.815Z,10.48
2017-09-14T18:57:22.058Z,10.49
2017-09-14T18:59:48.287Z,10.48
2017-09-14T19:02:14.577Z,10.52
2017-09-14T19:04:41.591Z,10.50
2017-09-14T19:07:09.026Z,10.48
2017-09-14T19:09:35.388Z,10.42
2017-09-14T19:12:01.675Z,10.39
2017-09-14T19:14:28.482Z,10.39
2017-09-14T19:16:54.796Z,10.42
2017-09-14T19:19:21.031Z,10.36
2017-09-14T19:21:47.377Z,10.36
2017-09-14T19:24:14.452Z,10.36
2017-09-14T19:26:41.446Z,10.35
2017-09-14T19:29:07.693Z,10.42
2017-09-14T19:31:33.940Z,10.45
2017-09-14T19:34:00.170Z,10.38
2017-09-14T19:36:26.442Z,10.36
2017-09-14T19:38:52.725Z,10.49
2017-09-14T19:41:19.109Z,10.46
2017-09-14T19:43:45.402Z,10.50
2017-09-14T19:46:11.668Z,10.51
2017-09-14T19:48:38.037Z,10.50
2017-09-14T19:51:05.049Z,10.44
2017-09-14T19:53:31.269Z,10.45
2017-09-14T19:55:57.542Z,10.42
2017-09-14T19:58:23.854Z,10.46
2017-09-14T20:00:50.101Z,10.48
2017-09-14T20:03:16.346Z,10.38
2017-09-14T20:05:42.706Z,10.46
2017-09-14T20:08:09.773Z,10.45
2017-09-14T20:10:36.047Z,10.46
2017-09-14T20:13:02.281Z,10.57
2017-09-14T20:15:28.529Z,10.48
2017-09-14T20:17:54.862Z,10.45
2017-09-14T20:20:21.124Z,10.35
2017-09-14T20:22:48.117Z,10.44
2017-09-14T20:25:14.391Z,10.39
2017-09-14T20:27:40.721Z,10.40
2017-09-14T20:30:06.969Z,10.35
2017-09-14T20:32:33.350Z,10.41
2017-09-14T20:35:00.405Z,10.36
2017-09-14T20:37:26.686Z,10.38
2017-09-14T20:39:52.921Z,10.35
2017-09-14T20:42:19.266Z,10.38
2017-09-14T20:44:45.554Z,10.46
2017-09-14T20:47:11.834Z,10.37
2017-09-14T20:49:43.811Z,10.41
2017-09-14T20:52:10.278Z,10.39
2017-09-14T20:54:37.282Z,10.38
2017-09-14T20:57:04.019Z,10.35
2017-09-14T20:59:30.326Z,10.33
2017-09-14T21:01:56.793Z,10.31
2017-09-14T21:04:23.017Z,10.40
2017-09-14T21:06:49.237Z,10.42
2017-09-14T21:09:15.633Z,10.46
2017-09-14T21:11:42.961Z,10.44
2017-09-14T21:14:09.167Z,10.42
2017-09-14T21:16:35.405Z,10.34
2017-09-14T21:19:01.645Z,10.36
2017-09-14T21:21:27.881Z,10.34
2017-09-14T21:23:54.131Z,10.37
2017-09-14T21:26:20.335Z,10.31
2017-09-14T21:28:46.605Z,10.31
2017-09-14T21:31:12.937Z,10.34
2017-09-14T21:33:39.172Z,10.28
2017-09-14T21:36:05.396Z,10.25
2017-09-14T21:38:31.654Z,10.27
2017-09-14T21:40:57.998Z,10.24
2017-09-14T21:43:24.223Z,10.25
2017-09-14T21:45:50.473Z,10.26
2017-09-14T21:48:16.709Z,10.23
2017-09-14T21:50:43.046Z,10.20
2017-09-14T21:53:09.318Z,10.26
2017-09-14T21:55:41.584Z,10.26
2017-09-14T21:58:08.161Z,10.24
2017-09-14T22:00:34.386Z,10.15
2017-09-14T22:03:00.746Z,10.12
2017-09-14T22:05:26.985Z,10.10
2017-09-14T22:07:53.201Z,10.08
2017-09-14T22:10:19.437Z,10.11
2017-09-14T22:12:45.633Z,10.16
2017-09-14T22:15:12.626Z,10.16
2017-09-14T22:17:39.169Z,10.14
2017-09-14T22:20:05.425Z,10.05
2017-09-14T22:22:31.790Z,10.04
2017-09-14T22:24:58.718Z,10.00
2017-09-14T22:27:25.030Z,10.09
2017-09-14T22:29:52.211Z,10.07
2017-09-14T22:32:18.497Z,10.08
2017-09-14T22:34:44.786Z,10.08
2017-09-14T22:37:11.107Z,10.05
2017-09-14T22:39:37.458Z,10.01
2017-09-14T22:42:03.817Z,10.00
2017-09-14T22:44:31.092Z,9.92
2017-09-14T22:46:57.351Z,9.96
2017-09-14T22:49:23.599Z,9.97
2017-09-14T22:51:49.803Z,9.88
2017-09-14T22:54:16.961Z,9.83
2017-09-14T22:56:43.210Z,9.80
2017-09-14T22:59:09.541Z,9.76
2017-09-14T23:01:35.756Z,9.74
2017-09-14T23:04:02.034Z,9.79
2017-09-14T23:06:28.359Z,9.71
2017-09-14T23:08:54.634Z,9.67
2017-09-14T23:11:21.614Z,9.71
2017-09-14T23:13:47.925Z,9.68
2017-09-14T23:16:14.145Z,9.70
2017-09-14T23:18:40.438Z,9.64
2017-09-14T23:21:06.725Z,9.68
2017-09-14T23:23:32.994Z,9.69
2017-09-14T23:25:59.262Z,9.76
2017-09-14T23:28:25.462Z,9.71
2017-09-14T23:30:51.747Z,9.69
2017-09-14T23:33:18.070Z,9.66
2017-09-14T23:35:44.258Z,9.70
2017-09-14T23:38:11.420Z,9.68
2017-09-14T23:40:37.697Z,9.74
2017-09-14T23:43:03.885Z,9.74
2017-09-14T23:45:30.129Z,9.76
2017-09-14T23:47:56.401Z,9.76
2017-09-14T23:50:22.646Z,9.77
2017-09-14T23:52:48.850Z,9.82
2017-09-14T23:55:15.019Z,9.80
2017-09-14T23:57:41.326Z,9.80
